Terminal Aerodrome Forecast
Issued by NWS

Home | Current Version | Previous Version | Text Only | Print | Product List | Glossary Off
Versions: 1 2 3 4 5 6 7 8 9 10 11 12 13 14 15 16 17 18 19 20 21 22 23 24 25 26

000
FTUS43 KTOP 151124
TAFFOE
TAF
KFOE 151124Z 1512/1612 16005KT 6SM BR SCT250
      TEMPO 1512/1513 3SM MIFG
     FM151400 16009KT P6SM SCT060
     FM160600 16007KT P6SM VCTS SCT070CB=

USA.gov is the U.S. government's official web portal to all federal, state and local government web resources and services.